createdAt,value
2022-07-27T00:01:51.720Z,98157.34
2022-07-27T00:04:22.065Z,98156.22
2022-07-27T00:06:49.203Z,98161.88
2022-07-27T00:09:18.251Z,98162.69
2022-07-27T00:11:46.216Z,98168.59
2022-07-27T00:14:13.752Z,98170.03
2022-07-27T00:16:41.034Z,98166.69
2022-07-27T00:19:09.293Z,98169.69
2022-07-27T00:21:41.287Z,98167.53
2022-07-27T00:24:12.522Z,98169.69
2022-07-27T00:26:39.504Z,98171.81
2022-07-27T00:29:06.940Z,98168.63
2022-07-27T00:31:34.143Z,98162.63
2022-07-27T00:34:01.159Z,98161.69
2022-07-27T00:36:28.303Z,98170.66
2022-07-27T00:38:55.256Z,98162.63
2022-07-27T00:41:22.530Z,98169.63
2022-07-27T00:43:59.374Z,98165.34
2022-07-27T00:46:28.544Z,98161.59
2022-07-27T00:48:55.649Z,98164.75
2022-07-27T00:51:23.264Z,98163.63
2022-07-27T00:53:52.816Z,98165.78
2022-07-27T00:56:20.183Z,98158.72
2022-07-27T00:58:51.903Z,98150.72
2022-07-27T01:01:20.085Z,98152.84
2022-07-27T01:03:47.945Z,98148.75
2022-07-27T01:06:16.246Z,98148.50
2022-07-27T01:08:44.250Z,98139.13
2022-07-27T01:11:12.083Z,98150.41
2022-07-27T01:13:39.145Z,98145.81
2022-07-27T01:16:07.433Z,98148.78
2022-07-27T01:18:38.550Z,98142.31
2022-07-27T01:21:09.955Z,98138.53
2022-07-27T01:23:37.310Z,98137.66
2022-07-27T01:26:05.790Z,98138.50
2022-07-27T01:28:32.758Z,98139.28
2022-07-27T01:30:59.878Z,98139.94
2022-07-27T01:33:26.955Z,98129.63
2022-07-27T01:35:57.768Z,98126.81
2022-07-27T01:38:25.052Z,98122.72
2022-07-27T01:40:53.565Z,98125.25
2022-07-27T01:43:21.355Z,98118.72
2022-07-27T01:45:48.957Z,98105.25
2022-07-27T01:48:15.902Z,98118.97
2022-07-27T01:50:43.673Z,98119.22
2022-07-27T01:53:14.780Z,98115.97
2022-07-27T01:55:41.726Z,98125.69
2022-07-27T01:58:09.394Z,98118.09
2022-07-27T02:00:37.231Z,98108.66
2022-07-27T02:03:06.083Z,98103.50
2022-07-27T02:05:33.623Z,98097.63
2022-07-27T02:08:00.783Z,98099.22
2022-07-27T02:10:27.853Z,98099.25
2022-07-27T02:12:57.694Z,98097.56
2022-07-27T02:15:27.511Z,98103.13
2022-07-27T02:17:57.865Z,98115.94
2022-07-27T02:20:25.627Z,98113.72
2022-07-27T02:22:52.641Z,98108.84
2022-07-27T02:25:20.522Z,98104.56
2022-07-27T02:27:48.113Z,98100.75
2022-07-27T02:30:17.815Z,98108.28
2022-07-27T02:32:45.112Z,98110.00
2022-07-27T02:35:18.754Z,98108.25
2022-07-27T02:37:48.505Z,98104.69
2022-07-27T02:40:17.791Z,98105.81
2022-07-27T02:42:47.018Z,98100.72
2022-07-27T02:45:17.566Z,98098.84
2022-07-27T02:47:45.501Z,98102.31
2022-07-27T02:50:13.436Z,98106.34
2022-07-27T02:52:40.439Z,98119.00
2022-07-27T02:55:08.901Z,98120.41
2022-07-27T02:57:37.887Z,98123.56
2022-07-27T03:00:11.250Z,98125.41
2022-07-27T03:02:38.881Z,98118.91
2022-07-27T03:05:07.285Z,98111.09
2022-07-27T03:07:34.475Z,98120.03
2022-07-27T03:10:01.449Z,98112.47
2022-07-27T03:12:28.751Z,98118.91
2022-07-27T03:14:57.234Z,98114.09
2022-07-27T03:17:24.372Z,98107.91
2022-07-27T03:19:51.332Z,98111.09
2022-07-27T03:22:18.304Z,98109.47
2022-07-27T03:24:45.399Z,98120.47
2022-07-27T03:27:13.307Z,98115.50
2022-07-27T03:29:40.269Z,98113.56
2022-07-27T03:32:07.322Z,98111.97
2022-07-27T03:34:34.386Z,98106.59
2022-07-27T03:37:01.360Z,98109.75
2022-07-27T03:39:28.724Z,98111.69
2022-07-27T03:41:55.942Z,98098.66
2022-07-27T03:44:22.933Z,98113.19
2022-07-27T03:46:49.985Z,98110.63
2022-07-27T03:49:17.137Z,98104.16
2022-07-27T03:51:44.323Z,98111.13
2022-07-27T03:54:11.467Z,98107.13
2022-07-27T03:56:38.563Z,98105.50
2022-07-27T03:59:05.541Z,98118.69
2022-07-27T04:01:32.551Z,98123.75
2022-07-27T04:03:59.574Z,98118.31
2022-07-27T04:06:26.530Z,98117.69
2022-07-27T04:08:59.386Z,98121.63
2022-07-27T04:11:35.253Z,98126.47
2022-07-27T04:14:05.259Z,98128.53
2022-07-27T04:16:36.018Z,98130.97
2022-07-27T04:19:03.433Z,98130.22
2022-07-27T04:21:33.674Z,98129.56
2022-07-27T04:24:02.095Z,98131.91
2022-07-27T04:26:29.945Z,98137.66
2022-07-27T04:28:57.085Z,98161.53
2022-07-27T04:31:24.531Z,98155.63
2022-07-27T04:33:51.958Z,98167.50
2022-07-27T04:36:18.970Z,98162.84
2022-07-27T04:38:45.974Z,98150.69
2022-07-27T04:41:13.279Z,98161.94
2022-07-27T04:43:40.966Z,98164.41
2022-07-27T04:46:13.172Z,98161.16
2022-07-27T04:48:42.358Z,98162.53
2022-07-27T04:51:18.002Z,98166.09
2022-07-27T04:53:53.373Z,98160.97
2022-07-27T04:56:25.536Z,98170.59
2022-07-27T04:58:52.649Z,98162.53
2022-07-27T05:01:19.717Z,98165.75
2022-07-27T05:03:47.030Z,98170.56
2022-07-27T05:06:14.307Z,98167.88
2022-07-27T05:08:41.477Z,98166.25
2022-07-27T05:11:08.475Z,98165.69
2022-07-27T05:13:39.842Z,98167.44
2022-07-27T05:16:11.061Z,98159.91
2022-07-27T05:18:38.812Z,98171.97
2022-07-27T05:21:06.724Z,98172.69
2022-07-27T05:23:34.395Z,98172.72
2022-07-27T05:26:01.598Z,98173.00
2022-07-27T05:28:29.535Z,98164.88
2022-07-27T05:30:56.643Z,98179.97
2022-07-27T05:33:23.649Z,98182.16
2022-07-27T05:35:50.818Z,98184.91
2022-07-27T05:38:17.837Z,98192.03
2022-07-27T05:40:47.885Z,98190.25
2022-07-27T05:43:14.902Z,98199.34
2022-07-27T05:45:42.109Z,98193.91
2022-07-27T05:48:09.306Z,98204.75
2022-07-27T05:50:36.742Z,98202.78
2022-07-27T05:53:03.963Z,98210.41
2022-07-27T05:55:30.995Z,98209.72
2022-07-27T05:57:58.055Z,98216.97
2022-07-27T06:00:25.035Z,98214.28
2022-07-27T06:02:52.199Z,98216.63
2022-07-27T06:05:19.212Z,98225.03
2022-07-27T06:08:03.405Z,98221.59
2022-07-27T06:10:33.457Z,98210.50
2022-07-27T06:13:03.524Z,98214.28
2022-07-27T06:15:30.920Z,98205.59
2022-07-27T06:17:57.934Z,98204.81
2022-07-27T06:20:25.433Z,98212.50
2022-07-27T06:22:55.806Z,98217.06
2022-07-27T06:25:34.225Z,98215.38
2022-07-27T06:28:04.463Z,98213.97
2022-07-27T06:30:31.645Z,98215.75
2022-07-27T06:32:59.145Z,98212.00
2022-07-27T06:35:27.098Z,98211.00
2022-07-27T06:37:54.174Z,98219.09
2022-07-27T06:40:21.505Z,98209.91
2022-07-27T06:42:49.098Z,98212.34
2022-07-27T06:45:16.622Z,98220.69
2022-07-27T06:47:49.073Z,98212.75
2022-07-27T06:50:18.763Z,98213.25
2022-07-27T06:52:46.549Z,98216.69
2022-07-27T06:55:14.168Z,98211.56
2022-07-27T06:57:42.894Z,98216.06
2022-07-27T07:00:11.404Z,98212.47
2022-07-27T07:02:40.339Z,98208.38
2022-07-27T07:05:07.578Z,98218.09
2022-07-27T07:07:34.693Z,98212.97
2022-07-27T07:10:02.026Z,98214.53
2022-07-27T07:12:28.986Z,98220.50
2022-07-27T07:14:56.040Z,98212.31
2022-07-27T07:17:23.152Z,98220.31
2022-07-27T07:19:50.138Z,98221.31
2022-07-27T07:22:17.176Z,98220.00
2022-07-27T07:24:44.582Z,98212.06
2022-07-27T07:27:11.746Z,98217.88
2022-07-27T07:29:38.746Z,98216.91
2022-07-27T07:32:06.155Z,98218.34
2022-07-27T07:34:33.310Z,98220.94
2022-07-27T07:37:00.257Z,98213.56
2022-07-27T07:39:31.326Z,98205.69
2022-07-27T07:41:58.979Z,98214.69
2022-07-27T07:44:26.339Z,98208.34
2022-07-27T07:46:53.618Z,98203.94
2022-07-27T07:49:37.759Z,98211.56
2022-07-27T07:52:08.114Z,98207.69
2022-07-27T07:54:35.295Z,98204.38
2022-07-27T07:57:02.679Z,98215.31
2022-07-27T07:59:29.837Z,98213.25
2022-07-27T08:01:56.828Z,98205.63
2022-07-27T08:04:23.868Z,98203.84
2022-07-27T08:06:50.883Z,98211.75
2022-07-27T08:09:17.833Z,98209.38
2022-07-27T08:11:44.913Z,98211.00
2022-07-27T08:14:11.937Z,98217.09
2022-07-27T08:16:39.143Z,98219.97
2022-07-27T08:19:06.301Z,98210.69
2022-07-27T08:21:36.414Z,98206.59
2022-07-27T08:24:03.668Z,98224.16
2022-07-27T08:26:30.868Z,98222.13
2022-07-27T08:28:59.493Z,98221.50
2022-07-27T08:31:52.685Z,98208.69
2022-07-27T08:34:20.445Z,98213.56
2022-07-27T08:36:47.466Z,98218.28
2022-07-27T08:39:41.172Z,98214.53
2022-07-27T08:42:04.566Z,98219.72
2022-07-27T08:44:34.343Z,98222.19
2022-07-27T08:47:05.171Z,98215.94
2022-07-27T08:49:43.174Z,98215.94
2022-07-27T08:52:12.206Z,98217.09
2022-07-27T08:54:43.023Z,98222.72
2022-07-27T08:57:11.160Z,98225.59
2022-07-27T08:59:38.515Z,98214.72
2022-07-27T09:02:10.999Z,98225.38
2022-07-27T09:04:41.082Z,98217.00
2022-07-27T09:07:08.371Z,98217.94
2022-07-27T09:09:46.883Z,98213.31
2022-07-27T09:12:13.924Z,98210.75
2022-07-27T09:14:42.254Z,98210.53
2022-07-27T09:20:19.519Z,98210.44
2022-07-27T09:22:57.107Z,98207.09
2022-07-27T09:26:00.384Z,98215.78
2022-07-27T09:28:29.723Z,98207.38
2022-07-27T09:31:13.995Z,98208.97
2022-07-27T09:33:47.450Z,98208.25
2022-07-27T09:36:15.829Z,98205.72
2022-07-27T09:39:06.789Z,98205.72
2022-07-27T09:41:46.647Z,98215.75
2022-07-27T09:44:32.757Z,98207.38
2022-07-27T09:47:02.085Z,98211.03
2022-07-27T09:49:34.398Z,98208.38
2022-07-27T09:52:04.372Z,98217.34
2022-07-27T09:54:47.397Z,98217.75
2022-07-27T09:57:14.725Z,98203.88
2022-07-27T09:59:41.893Z,98211.50
2022-07-27T10:02:09.221Z,98212.03
2022-07-27T10:04:36.453Z,98205.34
2022-07-27T10:07:06.353Z,98212.63
2022-07-27T10:09:37.519Z,98209.53
2022-07-27T10:12:04.929Z,98207.13
2022-07-27T10:14:32.886Z,98200.56
2022-07-27T10:17:00.426Z,98207.22
2022-07-27T10:19:50.445Z,98212.63
2022-07-27T10:22:49.439Z,98208.81
2022-07-27T10:25:16.475Z,98210.06
2022-07-27T10:27:49.272Z,98214.91
2022-07-27T10:30:23.867Z,98210.72
2022-07-27T10:32:54.784Z,98210.88
2022-07-27T10:35:35.462Z,98206.41
2022-07-27T10:38:12.966Z,98206.22
2022-07-27T10:40:39.943Z,98209.09
2022-07-27T10:43:18.007Z,98208.63
2022-07-27T10:46:01.838Z,98202.47
2022-07-27T10:48:47.737Z,98199.47
2022-07-27T10:51:17.373Z,98201.63
2022-07-27T10:56:46.070Z,98210.75
2022-07-27T10:59:13.240Z,98198.94
2022-07-27T11:01:57.997Z,98201.94
2022-07-27T11:04:25.361Z,98198.66
2022-07-27T11:10:06.807Z,98202.72
2022-07-27T11:12:35.649Z,98190.84
2022-07-27T11:15:03.565Z,98186.44
2022-07-27T11:17:54.700Z,98177.81
2022-07-27T11:20:24.030Z,98179.06
2022-07-27T11:23:40.728Z,98180.59
2022-07-27T11:25:38.178Z,98164.94
2022-07-27T11:28:07.661Z,98173.59
2022-07-27T11:30:34.922Z,98175.31
2022-07-27T11:33:05.329Z,98177.47
2022-07-27T11:35:32.469Z,98162.84
2022-07-27T11:38:05.780Z,98172.41
2022-07-27T11:40:57.330Z,98170.59
2022-07-27T11:43:45.851Z,98178.63
2022-07-27T11:46:16.552Z,98171.34
2022-07-27T11:49:11.594Z,98173.22
2022-07-27T11:51:46.395Z,98164.09
2022-07-27T11:54:29.311Z,98161.53
2022-07-27T11:57:02.709Z,98159.38
2022-07-27T11:59:32.688Z,98163.38
2022-07-27T12:02:16.338Z,98161.13
2022-07-27T12:04:49.285Z,98155.13
2022-07-27T12:07:21.824Z,98155.69
2022-07-27T12:10:04.845Z,98153.03
2022-07-27T12:12:34.580Z,98159.22
2022-07-27T12:15:45.713Z,98151.97
2022-07-27T12:18:07.492Z,98154.03
2022-07-27T12:20:37.255Z,98151.28
2022-07-27T12:23:09.134Z,98157.16
2022-07-27T12:25:38.907Z,98162.00
2022-07-27T12:28:17.903Z,98156.56
2022-07-27T12:30:51.970Z,98155.19
2022-07-27T12:33:37.877Z,98152.88
2022-07-27T12:36:08.231Z,98152.63
2022-07-27T12:38:50.576Z,98156.16
2022-07-27T12:41:35.258Z,98148.47
2022-07-27T12:44:16.920Z,98139.44
2022-07-27T12:47:01.587Z,98150.25
2022-07-27T12:49:40.754Z,98149.06
2022-07-27T12:52:11.155Z,98148.59
2022-07-27T12:54:38.951Z,98149.91
2022-07-27T12:57:05.979Z,98153.13
2022-07-27T12:59:32.964Z,98143.59
2022-07-27T13:02:00.113Z,98139.44
2022-07-27T13:04:27.291Z,98135.41
2022-07-27T13:06:54.267Z,98134.84
2022-07-27T13:09:21.271Z,98127.75
2022-07-27T13:11:48.610Z,98133.25
2022-07-27T13:14:15.792Z,98124.69
2022-07-27T13:16:42.860Z,98118.41
2022-07-27T13:19:10.575Z,98127.72
2022-07-27T13:21:37.972Z,98127.28
2022-07-27T13:24:07.083Z,98120.66
2022-07-27T13:26:34.031Z,98128.00
2022-07-27T13:29:01.024Z,98132.44
2022-07-27T13:31:28.593Z,98138.06
2022-07-27T13:34:33.943Z,98132.69
2022-07-27T13:37:00.961Z,98126.03
2022-07-27T13:39:28.001Z,98127.59
2022-07-27T13:41:55.582Z,98127.53
2022-07-27T13:44:57.497Z,98124.72
2022-07-27T13:47:12.439Z,98122.72
2022-07-27T13:49:39.652Z,98124.41
2022-07-27T13:52:07.008Z,98110.22
2022-07-27T13:54:33.968Z,98124.66
2022-07-27T13:57:00.922Z,98124.41
2022-07-27T13:59:27.992Z,98125.53
2022-07-27T14:01:55.179Z,98120.50
2022-07-27T14:04:23.583Z,98122.19
2022-07-27T14:06:52.851Z,98129.47
2022-07-27T14:09:21.981Z,98118.72
2022-07-27T14:11:51.063Z,98119.06
2022-07-27T14:14:24.327Z,98120.44
2022-07-27T14:16:54.089Z,98115.13
2022-07-27T14:19:21.151Z,98118.25
2022-07-27T14:21:48.495Z,98115.88
2022-07-27T14:24:15.865Z,98112.94
2022-07-27T14:26:42.820Z,98112.75
2022-07-27T14:29:10.133Z,98105.81
2022-07-27T14:31:37.338Z,98108.19
2022-07-27T14:34:04.329Z,98110.19
2022-07-27T14:36:31.483Z,98115.56
2022-07-27T14:38:58.563Z,98111.88
2022-07-27T14:41:25.553Z,98110.56
2022-07-27T14:43:52.558Z,98113.47
2022-07-27T14:46:19.763Z,98103.69
2022-07-27T14:49:05.699Z,98098.63
2022-07-27T14:51:33.365Z,98089.97
2022-07-27T14:54:00.350Z,98090.88
2022-07-27T14:56:27.337Z,98090.25
2022-07-27T14:58:54.307Z,98103.44
2022-07-27T15:01:21.377Z,98099.56
2022-07-27T15:03:49.245Z,98101.44
2022-07-27T15:06:16.200Z,98102.50
2022-07-27T15:08:43.411Z,98109.09
2022-07-27T15:11:10.961Z,98107.13
2022-07-27T15:13:37.917Z,98103.69
2022-07-27T15:16:05.555Z,98107.59
2022-07-27T15:18:38.287Z,98107.66
2022-07-27T15:21:13.615Z,98105.66
2022-07-27T15:23:43.421Z,98107.38
2022-07-27T15:26:12.167Z,98104.31
2022-07-27T15:28:40.838Z,98100.78
2022-07-27T15:31:08.054Z,98101.06
2022-07-27T15:33:35.472Z,98100.63
2022-07-27T15:36:02.605Z,98093.19
2022-07-27T15:38:29.767Z,98090.91
2022-07-27T15:40:56.796Z,98105.13
2022-07-27T15:43:23.762Z,98100.91
2022-07-27T15:45:51.509Z,98100.56
2022-07-27T15:48:20.592Z,98092.97
2022-07-27T15:50:51.897Z,98106.84
2022-07-27T15:53:20.748Z,98103.34
2022-07-27T15:55:48.578Z,98103.00
2022-07-27T15:58:19.516Z,98088.91
2022-07-27T16:00:56.034Z,98091.88
2022-07-27T16:03:26.070Z,98095.50
2022-07-27T16:05:54.333Z,98083.09
2022-07-27T16:08:21.495Z,98090.50
2022-07-27T16:10:49.084Z,98084.44
2022-07-27T16:13:16.527Z,98083.56
2022-07-27T16:16:02.455Z,98084.78
2022-07-27T16:18:32.935Z,98086.13
2022-07-27T16:21:02.908Z,98085.56
2022-07-27T16:23:29.879Z,98075.88
2022-07-27T16:26:06.884Z,98083.75
2022-07-27T16:28:39.182Z,98082.31
2022-07-27T16:31:10.369Z,98082.75
2022-07-27T16:33:37.915Z,98080.97
2022-07-27T16:36:05.947Z,98072.50
2022-07-27T16:38:33.584Z,98078.94
2022-07-27T16:41:00.621Z,98068.09
2022-07-27T16:43:37.591Z,98069.13
2022-07-27T16:46:09.998Z,98061.91
2022-07-27T16:48:42.693Z,98054.63
2022-07-27T16:51:14.797Z,98059.56
2022-07-27T16:53:45.299Z,98064.38
2022-07-27T16:56:12.849Z,98071.75
2022-07-27T16:58:40.576Z,98070.81
2022-07-27T17:01:08.833Z,98072.47
2022-07-27T17:03:37.558Z,98069.69
2022-07-27T17:06:06.813Z,98077.50
2022-07-27T17:08:36.185Z,98074.19
2022-07-27T17:11:06.109Z,98074.03
2022-07-27T17:13:34.551Z,98077.06
2022-07-27T17:16:08.960Z,98069.72
2022-07-27T17:18:40.245Z,98076.34
2022-07-27T17:21:12.599Z,98082.06
2022-07-27T17:23:41.468Z,98072.78
2022-07-27T17:26:10.297Z,98070.97
2022-07-27T17:28:41.564Z,98064.59
2022-07-27T17:31:11.187Z,98078.91
2022-07-27T17:33:40.191Z,98076.66
2022-07-27T17:36:14.470Z,98071.84
2022-07-27T17:38:43.722Z,98076.59
2022-07-27T17:41:11.518Z,98076.75
2022-07-27T17:43:39.054Z,98075.50
2022-07-27T17:46:07.544Z,98070.03
2022-07-27T17:48:35.944Z,98081.13
2022-07-27T17:51:08.018Z,98072.44
2022-07-27T17:53:35.273Z,98074.34
2022-07-27T17:56:03.895Z,98080.50
2022-07-27T17:58:30.946Z,98091.41
2022-07-27T18:00:58.328Z,98089.53
2022-07-27T18:03:25.626Z,98088.66
2022-07-27T18:05:53.155Z,98089.91
2022-07-27T18:08:20.140Z,98092.75
2022-07-27T18:10:47.765Z,98092.47
2022-07-27T18:13:15.022Z,98089.19
2022-07-27T18:15:48.304Z,98086.91
2022-07-27T18:18:22.964Z,98093.28
2022-07-27T18:20:53.286Z,98094.34
2022-07-27T18:23:22.998Z,98101.44
2022-07-27T18:25:50.688Z,98099.13
2022-07-27T18:28:19.025Z,98098.88
2022-07-27T18:30:49.034Z,98099.28
2022-07-27T18:33:17.001Z,98107.41
2022-07-27T18:35:46.259Z,98108.16
2022-07-27T18:38:14.500Z,98104.84
2022-07-27T18:40:46.143Z,98102.19
2022-07-27T18:43:14.478Z,98104.56
2022-07-27T18:45:43.204Z,98113.88
2022-07-27T18:48:10.799Z,98107.97
2022-07-27T18:50:39.951Z,98115.88
2022-07-27T18:53:08.621Z,98116.09
2022-07-27T18:55:36.522Z,98115.94
2022-07-27T18:58:04.907Z,98115.50
2022-07-27T19:00:33.342Z,98114.41
2022-07-27T19:03:00.972Z,98125.66
2022-07-27T19:05:40.804Z,98130.41
2022-07-27T19:08:13.348Z,98123.56
2022-07-27T19:10:42.419Z,98127.34
2022-07-27T19:13:10.550Z,98128.19
2022-07-27T19:15:37.905Z,98136.06
2022-07-27T19:18:06.262Z,98140.41
2022-07-27T19:20:33.716Z,98146.81
2022-07-27T19:23:00.858Z,98150.38
2022-07-27T19:25:30.293Z,98143.69
2022-07-27T19:27:57.764Z,98152.03
2022-07-27T19:30:24.829Z,98153.97
2022-07-27T19:32:52.066Z,98160.22
2022-07-27T19:35:19.243Z,98152.13
2022-07-27T19:37:46.373Z,98150.66
2022-07-27T19:40:42.939Z,98159.84
2022-07-27T19:43:00.448Z,98163.38
2022-07-27T19:45:27.482Z,98162.31
2022-07-27T19:47:54.449Z,98174.53
2022-07-27T19:50:26.523Z,98171.97
2022-07-27T19:53:39.165Z,98172.16
2022-07-27T19:56:06.135Z,98175.97
2022-07-27T19:58:33.377Z,98172.66
2022-07-27T20:01:00.523Z,98174.97
2022-07-27T20:03:27.657Z,98171.97
2022-07-27T20:05:54.673Z,98174.31
2022-07-27T20:08:21.728Z,98178.63
2022-07-27T20:10:48.913Z,98176.19
2022-07-27T20:13:15.872Z,98177.88
2022-07-27T20:15:42.814Z,98176.56
2022-07-27T20:18:09.974Z,98175.75
2022-07-27T20:20:37.269Z,98175.19
2022-07-27T20:23:04.437Z,98177.69
2022-07-27T20:25:31.499Z,98183.06
2022-07-27T20:27:58.995Z,98176.63
2022-07-27T20:30:26.811Z,98167.97
2022-07-27T20:32:54.006Z,98173.38
2022-07-27T20:35:21.223Z,98173.13
2022-07-27T20:37:48.431Z,98178.00
2022-07-27T20:40:16.275Z,98175.56
2022-07-27T20:42:43.879Z,98176.09
2022-07-27T20:45:13.873Z,98180.94
2022-07-27T20:47:42.596Z,98177.19
2022-07-27T20:50:12.325Z,98171.50
2022-07-27T20:52:40.521Z,98172.72
2022-07-27T20:55:09.753Z,98168.41
2022-07-27T20:57:37.304Z,98180.56
2022-07-27T21:00:07.154Z,98172.41
2022-07-27T21:02:34.277Z,98175.19
2022-07-27T21:05:01.446Z,98180.03
2022-07-27T21:07:28.629Z,98176.22
2022-07-27T21:09:55.907Z,98174.03
2022-07-27T21:12:22.876Z,98175.09
2022-07-27T21:14:49.860Z,98183.53
2022-07-27T21:17:16.794Z,98188.63
2022-07-27T21:19:43.771Z,98180.53
2022-07-27T21:22:10.820Z,98175.13
2022-07-27T21:24:37.754Z,98183.81
2022-07-27T21:27:05.346Z,98176.53
2022-07-27T21:29:33.323Z,98189.75
2022-07-27T21:32:00.480Z,98176.25
2022-07-27T21:34:27.715Z,98178.41
2022-07-27T21:36:54.671Z,98178.09
2022-07-27T21:39:21.651Z,98185.97
2022-07-27T21:41:48.628Z,98183.28
2022-07-27T21:44:16.116Z,98183.53
2022-07-27T21:46:43.689Z,98181.38
2022-07-27T21:49:13.130Z,98189.47
2022-07-27T21:51:40.316Z,98181.63
2022-07-27T21:54:07.477Z,98178.66
2022-07-27T22:01:24.574Z,98187.59
2022-07-27T22:03:52.095Z,98186.25
2022-07-27T22:06:19.330Z,98186.25
2022-07-27T22:08:46.453Z,98178.94
2022-07-27T22:11:13.929Z,98189.22
2022-07-27T22:13:41.117Z,98190.28
2022-07-27T22:16:09.373Z,98180.84
2022-07-27T22:18:36.814Z,98180.84
2022-07-27T22:21:03.794Z,98181.56
2022-07-27T22:23:31.046Z,98188.06
2022-07-27T22:25:58.199Z,98190.72
2022-07-27T22:28:26.200Z,98195.56
2022-07-27T22:30:59.447Z,98196.13
2022-07-27T22:33:41.041Z,98189.63
2022-07-27T22:36:12.202Z,98191.81
2022-07-27T22:38:39.256Z,98193.16
2022-07-27T22:41:06.707Z,98194.56
2022-07-27T22:43:33.809Z,98192.84
2022-07-27T22:46:05.701Z,98186.97
2022-07-27T22:48:32.790Z,98197.72
2022-07-27T22:50:59.817Z,98197.84
2022-07-27T22:53:26.923Z,98195.69
2022-07-27T22:55:53.953Z,98200.56
2022-07-27T22:58:21.657Z,98193.75
2022-07-27T23:00:49.241Z,98194.56
2022-07-27T23:03:16.426Z,98205.22
2022-07-27T23:05:43.442Z,98205.78
2022-07-27T23:08:13.012Z,98205.78
2022-07-27T23:10:46.106Z,98198.25
2022-07-27T23:13:20.427Z,98195.88
2022-07-27T23:15:48.022Z,98199.06
2022-07-27T23:18:16.763Z,98196.13
2022-07-27T23:20:44.581Z,98186.25
2022-07-27T23:23:16.362Z,98184.88
2022-07-27T23:25:48.261Z,98184.09
2022-07-27T23:28:16.803Z,98180.84
2022-07-27T23:30:44.228Z,98183.28
2022-07-27T23:33:11.653Z,98181.66
2022-07-27T23:35:38.737Z,98186.19
2022-07-27T23:38:05.777Z,98186.53
2022-07-27T23:40:33.006Z,98190.41
2022-07-27T23:43:00.014Z,98197.22
2022-07-27T23:45:27.923Z,98192.31
2022-07-27T23:47:55.183Z,98181.31
2022-07-27T23:50:22.313Z,98191.09
2022-07-27T23:52:49.358Z,98200.19
2022-07-27T23:55:16.299Z,98186.72
2022-07-27T23:57:43.449Z,98184.31
